sensor_id;sensor_type;location;lat;lon;timestamp;P1;durP1;ratioP1;P2;durP2;ratioP2
36315;SDS011;22343;50.820;2.666;2023-04-21T00:02:24;24.70;;;18.00;;
36315;SDS011;22343;50.820;2.666;2023-04-21T00:05:09;22.93;;;17.07;;
36315;SDS011;22343;50.820;2.666;2023-04-21T00:07:53;23.97;;;17.57;;
36315;SDS011;22343;50.820;2.666;2023-04-21T00:10:38;22.30;;;16.83;;
36315;SDS011;22343;50.820;2.666;2023-04-21T00:13:22;22.87;;;17.40;;
36315;SDS011;22343;50.820;2.666;2023-04-21T00:16:07;23.97;;;17.20;;
36315;SDS011;22343;50.820;2.666;2023-04-21T00:18:51;22.63;;;17.07;;
36315;SDS011;22343;50.820;2.666;2023-04-21T00:21:35;22.67;;;16.87;;
36315;SDS011;22343;50.820;2.666;2023-04-21T00:24:20;21.43;;;16.53;;
36315;SDS011;22343;50.820;2.666;2023-04-21T00:27:04;21.53;;;17.00;;
36315;SDS011;22343;50.820;2.666;2023-04-21T00:29:49;20.83;;;16.63;;
36315;SDS011;22343;50.820;2.666;2023-04-21T00:32:33;24.03;;;16.93;;
36315;SDS011;22343;50.820;2.666;2023-04-21T00:35:18;22.03;;;16.73;;
36315;SDS011;22343;50.820;2.666;2023-04-21T00:38:02;23.13;;;17.70;;
36315;SDS011;22343;50.820;2.666;2023-04-21T00:40:47;21.43;;;16.20;;
36315;SDS011;22343;50.820;2.666;2023-04-21T00:43:31;23.87;;;16.70;;
36315;SDS011;22343;50.820;2.666;2023-04-21T00:46:15;20.50;;;16.17;;
36315;SDS011;22343;50.820;2.666;2023-04-21T00:49:02;22.80;;;17.00;;
36315;SDS011;22343;50.820;2.666;2023-04-21T00:51:48;22.90;;;17.37;;
36315;SDS011;22343;50.820;2.666;2023-04-21T00:54:34;25.53;;;18.50;;
36315;SDS011;22343;50.820;2.666;2023-04-21T00:57:19;22.63;;;17.57;;
36315;SDS011;22343;50.820;2.666;2023-04-21T01:00:04;22.67;;;17.60;;
36315;SDS011;22343;50.820;2.666;2023-04-21T01:02:49;22.20;;;16.80;;
36315;SDS011;22343;50.820;2.666;2023-04-21T01:05:33;24.23;;;18.10;;
36315;SDS011;22343;50.820;2.666;2023-04-21T01:08:18;24.70;;;18.90;;
36315;SDS011;22343;50.820;2.666;2023-04-21T01:11:12;25.83;;;19.17;;
36315;SDS011;22343;50.820;2.666;2023-04-21T01:13:57;26.13;;;18.77;;
36315;SDS011;22343;50.820;2.666;2023-04-21T01:16:41;25.13;;;19.17;;
36315;SDS011;22343;50.820;2.666;2023-04-21T01:19:29;24.80;;;18.20;;
36315;SDS011;22343;50.820;2.666;2023-04-21T01:22:15;27.10;;;19.27;;
36315;SDS011;22343;50.820;2.666;2023-04-21T01:24:59;24.67;;;18.53;;
36315;SDS011;22343;50.820;2.666;2023-04-21T01:27:43;23.87;;;17.50;;
36315;SDS011;22343;50.820;2.666;2023-04-21T01:30:28;22.80;;;16.80;;
36315;SDS011;22343;50.820;2.666;2023-04-21T01:33:12;25.67;;;18.27;;
36315;SDS011;22343;50.820;2.666;2023-04-21T01:35:56;23.57;;;17.23;;
36315;SDS011;22343;50.820;2.666;2023-04-21T01:38:41;23.57;;;17.90;;
36315;SDS011;22343;50.820;2.666;2023-04-21T01:41:26;25.10;;;17.37;;
36315;SDS011;22343;50.820;2.666;2023-04-21T01:44:10;19.27;;;14.77;;
36315;SDS011;22343;50.820;2.666;2023-04-21T01:46:54;21.60;;;16.20;;
36315;SDS011;22343;50.820;2.666;2023-04-21T01:49:39;23.47;;;17.80;;
36315;SDS011;22343;50.820;2.666;2023-04-21T01:52:24;23.07;;;17.63;;
36315;SDS011;22343;50.820;2.666;2023-04-21T01:55:08;25.73;;;18.27;;
36315;SDS011;22343;50.820;2.666;2023-04-21T01:57:53;24.27;;;18.20;;
36315;SDS011;22343;50.820;2.666;2023-04-21T02:00:40;22.70;;;17.10;;
36315;SDS011;22343;50.820;2.666;2023-04-21T02:03:25;23.27;;;17.03;;
36315;SDS011;22343;50.820;2.666;2023-04-21T02:06:10;23.63;;;17.70;;
36315;SDS011;22343;50.820;2.666;2023-04-21T02:08:54;25.87;;;18.57;;
36315;SDS011;22343;50.820;2.666;2023-04-21T02:11:38;28.77;;;20.37;;
36315;SDS011;22343;50.820;2.666;2023-04-21T02:14:23;27.70;;;19.87;;
36315;SDS011;22343;50.820;2.666;2023-04-21T02:17:08;27.83;;;18.53;;
36315;SDS011;22343;50.820;2.666;2023-04-21T02:19:52;27.03;;;18.67;;
36315;SDS011;22343;50.820;2.666;2023-04-21T02:22:37;25.60;;;18.77;;
36315;SDS011;22343;50.820;2.666;2023-04-21T02:25:22;26.47;;;19.20;;
36315;SDS011;22343;50.820;2.666;2023-04-21T02:28:06;26.87;;;19.03;;
36315;SDS011;22343;50.820;2.666;2023-04-21T02:30:51;32.90;;;21.07;;
36315;SDS011;22343;50.820;2.666;2023-04-21T02:33:35;28.80;;;20.97;;
36315;SDS011;22343;50.820;2.666;2023-04-21T02:36:19;27.83;;;20.73;;
36315;SDS011;22343;50.820;2.666;2023-04-21T02:39:04;28.63;;;19.87;;
36315;SDS011;22343;50.820;2.666;2023-04-21T02:41:48;26.07;;;18.53;;
36315;SDS011;22343;50.820;2.666;2023-04-21T02:44:33;26.67;;;18.97;;
36315;SDS011;22343;50.820;2.666;2023-04-21T02:47:17;27.00;;;19.07;;
36315;SDS011;22343;50.820;2.666;2023-04-21T02:50:01;29.07;;;20.07;;
36315;SDS011;22343;50.820;2.666;2023-04-21T02:52:46;29.40;;;19.83;;
36315;SDS011;22343;50.820;2.666;2023-04-21T02:55:30;29.90;;;20.27;;
36315;SDS011;22343;50.820;2.666;2023-04-21T02:58:14;28.77;;;20.60;;
36315;SDS011;22343;50.820;2.666;2023-04-21T03:00:59;28.20;;;19.87;;
36315;SDS011;22343;50.820;2.666;2023-04-21T03:03:44;29.70;;;21.17;;
36315;SDS011;22343;50.820;2.666;2023-04-21T03:06:31;26.33;;;19.60;;
36315;SDS011;22343;50.820;2.666;2023-04-21T03:09:16;27.70;;;20.03;;
36315;SDS011;22343;50.820;2.666;2023-04-21T03:12:00;27.77;;;19.33;;
36315;SDS011;22343;50.820;2.666;2023-04-21T03:14:46;26.33;;;19.07;;
36315;SDS011;22343;50.820;2.666;2023-04-21T03:17:31;30.47;;;20.60;;
36315;SDS011;22343;50.820;2.666;2023-04-21T03:20:15;28.07;;;19.97;;
36315;SDS011;22343;50.820;2.666;2023-04-21T03:22:59;29.03;;;21.20;;
36315;SDS011;22343;50.820;2.666;2023-04-21T03:25:44;33.97;;;21.73;;
36315;SDS011;22343;50.820;2.666;2023-04-21T03:28:28;31.30;;;22.47;;
36315;SDS011;22343;50.820;2.666;2023-04-21T03:31:12;31.40;;;21.90;;
36315;SDS011;22343;50.820;2.666;2023-04-21T03:33:57;30.13;;;21.43;;
36315;SDS011;22343;50.820;2.666;2023-04-21T03:36:41;30.67;;;21.37;;
36315;SDS011;22343;50.820;2.666;2023-04-21T03:39:25;30.30;;;21.33;;
36315;SDS011;22343;50.820;2.666;2023-04-21T03:42:10;29.93;;;20.83;;
36315;SDS011;22343;50.820;2.666;2023-04-21T03:44:54;30.80;;;20.53;;
36315;SDS011;22343;50.820;2.666;2023-04-21T03:47:39;32.40;;;21.53;;
36315;SDS011;22343;50.820;2.666;2023-04-21T03:50:23;31.17;;;21.33;;
36315;SDS011;22343;50.820;2.666;2023-04-21T03:53:08;29.67;;;22.10;;
36315;SDS011;22343;50.820;2.666;2023-04-21T03:55:52;30.70;;;20.90;;
36315;SDS011;22343;50.820;2.666;2023-04-21T03:58:36;29.53;;;21.13;;
36315;SDS011;22343;50.820;2.666;2023-04-21T04:01:20;27.63;;;20.67;;
36315;SDS011;22343;50.820;2.666;2023-04-21T04:04:05;30.87;;;21.83;;
36315;SDS011;22343;50.820;2.666;2023-04-21T04:06:49;27.23;;;20.23;;
36315;SDS011;22343;50.820;2.666;2023-04-21T04:09:33;29.03;;;20.10;;
36315;SDS011;22343;50.820;2.666;2023-04-21T04:12:18;29.80;;;21.17;;
36315;SDS011;22343;50.820;2.666;2023-04-21T04:15:02;29.80;;;21.83;;
36315;SDS011;22343;50.820;2.666;2023-04-21T04:17:47;34.77;;;23.23;;
36315;SDS011;22343;50.820;2.666;2023-04-21T04:20:32;37.67;;;27.37;;
36315;SDS011;22343;50.820;2.666;2023-04-21T04:23:16;36.10;;;24.87;;
36315;SDS011;22343;50.820;2.666;2023-04-21T04:26:00;33.50;;;23.83;;
36315;SDS011;22343;50.820;2.666;2023-04-21T04:28:47;32.20;;;23.60;;
36315;SDS011;22343;50.820;2.666;2023-04-21T04:31:31;34.23;;;22.63;;
36315;SDS011;22343;50.820;2.666;2023-04-21T04:34:16;32.33;;;22.93;;
36315;SDS011;22343;50.820;2.666;2023-04-21T04:37:01;33.93;;;23.83;;
36315;SDS011;22343;50.820;2.666;2023-04-21T04:39:46;35.43;;;25.07;;
36315;SDS011;22343;50.820;2.666;2023-04-21T04:42:31;35.13;;;24.67;;
36315;SDS011;22343;50.820;2.666;2023-04-21T04:45:16;34.10;;;22.67;;
36315;SDS011;22343;50.820;2.666;2023-04-21T04:48:00;33.07;;;22.80;;
36315;SDS011;22343;50.820;2.666;2023-04-21T04:50:44;34.10;;;23.30;;
36315;SDS011;22343;50.820;2.666;2023-04-21T04:53:29;36.77;;;24.73;;
36315;SDS011;22343;50.820;2.666;2023-04-21T04:56:13;35.20;;;24.97;;
36315;SDS011;22343;50.820;2.666;2023-04-21T04:58:57;41.27;;;25.90;;
36315;SDS011;22343;50.820;2.666;2023-04-21T05:01:42;37.70;;;27.07;;
36315;SDS011;22343;50.820;2.666;2023-04-21T05:04:26;37.00;;;25.87;;
36315;SDS011;22343;50.820;2.666;2023-04-21T05:07:10;39.37;;;27.17;;
36315;SDS011;22343;50.820;2.666;2023-04-21T05:09:55;39.80;;;26.00;;
36315;SDS011;22343;50.820;2.666;2023-04-21T05:12:39;36.40;;;27.30;;
36315;SDS011;22343;50.820;2.666;2023-04-21T05:15:24;41.13;;;26.73;;
36315;SDS011;22343;50.820;2.666;2023-04-21T05:18:08;36.67;;;25.20;;
36315;SDS011;22343;50.820;2.666;2023-04-21T05:20:52;45.80;;;32.27;;
36315;SDS011;22343;50.820;2.666;2023-04-21T05:23:36;43.43;;;30.30;;
36315;SDS011;22343;50.820;2.666;2023-04-21T05:26:21;40.20;;;27.13;;
36315;SDS011;22343;50.820;2.666;2023-04-21T05:29:06;36.60;;;24.87;;
36315;SDS011;22343;50.820;2.666;2023-04-21T05:31:50;38.83;;;26.23;;
36315;SDS011;22343;50.820;2.666;2023-04-21T05:34:35;38.30;;;23.80;;
36315;SDS011;22343;50.820;2.666;2023-04-21T05:37:19;41.63;;;26.73;;
36315;SDS011;22343;50.820;2.666;2023-04-21T05:40:03;38.50;;;26.80;;
36315;SDS011;22343;50.820;2.666;2023-04-21T05:42:48;39.00;;;27.17;;
36315;SDS011;22343;50.820;2.666;2023-04-21T05:45:33;38.80;;;24.80;;
36315;SDS011;22343;50.820;2.666;2023-04-21T05:48:22;38.87;;;25.90;;
36315;SDS011;22343;50.820;2.666;2023-04-21T05:51:11;38.10;;;26.97;;
36315;SDS011;22343;50.820;2.666;2023-04-21T05:53:56;42.93;;;28.17;;
36315;SDS011;22343;50.820;2.666;2023-04-21T05:56:40;41.73;;;27.73;;
36315;SDS011;22343;50.820;2.666;2023-04-21T05:59:25;42.57;;;27.47;;
36315;SDS011;22343;50.820;2.666;2023-04-21T06:02:09;40.70;;;28.03;;
36315;SDS011;22343;50.820;2.666;2023-04-21T06:04:54;37.23;;;26.37;;
36315;SDS011;22343;50.820;2.666;2023-04-21T06:07:38;36.63;;;25.37;;
36315;SDS011;22343;50.820;2.666;2023-04-21T06:10:23;34.93;;;25.67;;
36315;SDS011;22343;50.820;2.666;2023-04-21T06:13:07;36.77;;;25.37;;
36315;SDS011;22343;50.820;2.666;2023-04-21T06:15:52;38.47;;;26.57;;
36315;SDS011;22343;50.820;2.666;2023-04-21T06:18:37;40.63;;;26.47;;
36315;SDS011;22343;50.820;2.666;2023-04-21T06:21:21;41.70;;;27.70;;
36315;SDS011;22343;50.820;2.666;2023-04-21T06:24:06;41.10;;;28.07;;
36315;SDS011;22343;50.820;2.666;2023-04-21T06:26:51;42.60;;;29.47;;
36315;SDS011;22343;50.820;2.666;2023-04-21T06:29:36;46.63;;;30.80;;
36315;SDS011;22343;50.820;2.666;2023-04-21T06:32:20;44.67;;;30.47;;
36315;SDS011;22343;50.820;2.666;2023-04-21T06:35:05;43.53;;;29.83;;
36315;SDS011;22343;50.820;2.666;2023-04-21T06:37:49;44.43;;;30.97;;
36315;SDS011;22343;50.820;2.666;2023-04-21T06:40:34;45.30;;;28.97;;
36315;SDS011;22343;50.820;2.666;2023-04-21T06:43:18;45.30;;;29.93;;
36315;SDS011;22343;50.820;2.666;2023-04-21T06:46:03;43.97;;;29.67;;
36315;SDS011;22343;50.820;2.666;2023-04-21T06:48:47;45.00;;;30.13;;
36315;SDS011;22343;50.820;2.666;2023-04-21T06:51:32;45.50;;;30.63;;
36315;SDS011;22343;50.820;2.666;2023-04-21T06:54:16;48.57;;;30.80;;
36315;SDS011;22343;50.820;2.666;2023-04-21T06:57:00;46.60;;;31.53;;
36315;SDS011;22343;50.820;2.666;2023-04-21T06:59:45;46.33;;;31.43;;
36315;SDS011;22343;50.820;2.666;2023-04-21T07:02:29;47.43;;;33.13;;
36315;SDS011;22343;50.820;2.666;2023-04-21T07:05:14;47.90;;;31.80;;
36315;SDS011;22343;50.820;2.666;2023-04-21T07:07:58;45.10;;;30.50;;
36315;SDS011;22343;50.820;2.666;2023-04-21T07:10:43;45.57;;;30.97;;
36315;SDS011;22343;50.820;2.666;2023-04-21T07:13:27;46.63;;;32.30;;
36315;SDS011;22343;50.820;2.666;2023-04-21T07:16:12;48.20;;;33.30;;
36315;SDS011;22343;50.820;2.666;2023-04-21T07:18:56;52.17;;;34.27;;
36315;SDS011;22343;50.820;2.666;2023-04-21T07:21:40;51.43;;;34.60;;
36315;SDS011;22343;50.820;2.666;2023-04-21T07:24:24;49.80;;;33.57;;
36315;SDS011;22343;50.820;2.666;2023-04-21T07:27:09;48.77;;;32.37;;
36315;SDS011;22343;50.820;2.666;2023-04-21T07:29:53;43.87;;;30.77;;
36315;SDS011;22343;50.820;2.666;2023-04-21T07:32:37;49.30;;;32.93;;
36315;SDS011;22343;50.820;2.666;2023-04-21T07:35:22;44.53;;;30.87;;
36315;SDS011;22343;50.820;2.666;2023-04-21T07:38:07;46.20;;;32.57;;
36315;SDS011;22343;50.820;2.666;2023-04-21T07:40:52;47.73;;;33.17;;
36315;SDS011;22343;50.820;2.666;2023-04-21T07:43:37;45.60;;;31.87;;
36315;SDS011;22343;50.820;2.666;2023-04-21T07:46:21;45.50;;;32.57;;
36315;SDS011;22343;50.820;2.666;2023-04-21T07:49:12;46.37;;;31.07;;
36315;SDS011;22343;50.820;2.666;2023-04-21T07:51:57;44.83;;;32.17;;
36315;SDS011;22343;50.820;2.666;2023-04-21T07:54:41;46.33;;;32.43;;
36315;SDS011;22343;50.820;2.666;2023-04-21T07:57:26;44.73;;;29.57;;
36315;SDS011;22343;50.820;2.666;2023-04-21T08:00:10;39.60;;;28.87;;
36315;SDS011;22343;50.820;2.666;2023-04-21T08:02:56;39.77;;;29.33;;
36315;SDS011;22343;50.820;2.666;2023-04-21T08:05:40;41.93;;;29.60;;
36315;SDS011;22343;50.820;2.666;2023-04-21T08:08:25;40.70;;;28.53;;
36315;SDS011;22343;50.820;2.666;2023-04-21T08:11:09;41.03;;;29.10;;
36315;SDS011;22343;50.820;2.666;2023-04-21T08:13:53;38.73;;;28.00;;
36315;SDS011;22343;50.820;2.666;2023-04-21T08:16:38;41.40;;;29.17;;
36315;SDS011;22343;50.820;2.666;2023-04-21T08:19:25;38.07;;;26.87;;
36315;SDS011;22343;50.820;2.666;2023-04-21T08:22:09;37.13;;;27.10;;
36315;SDS011;22343;50.820;2.666;2023-04-21T08:24:53;33.77;;;24.80;;
36315;SDS011;22343;50.820;2.666;2023-04-21T08:27:38;34.47;;;25.27;;
36315;SDS011;22343;50.820;2.666;2023-04-21T08:30:24;37.17;;;27.00;;
36315;SDS011;22343;50.820;2.666;2023-04-21T08:33:10;31.63;;;24.67;;
36315;SDS011;22343;50.820;2.666;2023-04-21T08:35:56;32.53;;;24.73;;
36315;SDS011;22343;50.820;2.666;2023-04-21T08:38:41;32.33;;;24.13;;
36315;SDS011;22343;50.820;2.666;2023-04-21T08:41:27;31.87;;;24.87;;
36315;SDS011;22343;50.820;2.666;2023-04-21T08:44:11;32.43;;;24.33;;
36315;SDS011;22343;50.820;2.666;2023-04-21T08:46:55;33.83;;;24.47;;
36315;SDS011;22343;50.820;2.666;2023-04-21T08:49:42;34.30;;;25.13;;
36315;SDS011;22343;50.820;2.666;2023-04-21T08:52:30;31.93;;;23.20;;
36315;SDS011;22343;50.820;2.666;2023-04-21T08:55:14;33.30;;;25.10;;
36315;SDS011;22343;50.820;2.666;2023-04-21T08:58:02;30.60;;;23.10;;
36315;SDS011;22343;50.820;2.666;2023-04-21T09:00:48;30.93;;;24.67;;
36315;SDS011;22343;50.820;2.666;2023-04-21T09:03:32;29.93;;;23.47;;
36315;SDS011;22343;50.820;2.666;2023-04-21T09:06:17;30.10;;;22.93;;
36315;SDS011;22343;50.820;2.666;2023-04-21T09:09:01;31.97;;;24.20;;
36315;SDS011;22343;50.820;2.666;2023-04-21T09:11:53;30.40;;;23.37;;
36315;SDS011;22343;50.820;2.666;2023-04-21T09:14:41;32.93;;;24.77;;
36315;SDS011;22343;50.820;2.666;2023-04-21T09:17:27;29.67;;;23.13;;
36315;SDS011;22343;50.820;2.666;2023-04-21T09:20:17;26.77;;;21.77;;
36315;SDS011;22343;50.820;2.666;2023-04-21T09:23:04;27.87;;;22.07;;
36315;SDS011;22343;50.820;2.666;2023-04-21T09:25:49;22.70;;;19.00;;
36315;SDS011;22343;50.820;2.666;2023-04-21T09:28:34;24.80;;;19.47;;
36315;SDS011;22343;50.820;2.666;2023-04-21T09:31:19;22.83;;;18.40;;
36315;SDS011;22343;50.820;2.666;2023-04-21T09:34:16;23.43;;;19.83;;
36315;SDS011;22343;50.820;2.666;2023-04-21T09:37:04;22.87;;;19.37;;
36315;SDS011;22343;50.820;2.666;2023-04-21T09:39:48;23.13;;;19.03;;
36315;SDS011;22343;50.820;2.666;2023-04-21T09:42:32;23.70;;;19.07;;
36315;SDS011;22343;50.820;2.666;2023-04-21T09:45:18;22.37;;;18.47;;
36315;SDS011;22343;50.820;2.666;2023-04-21T09:48:03;22.27;;;18.23;;
36315;SDS011;22343;50.820;2.666;2023-04-21T09:50:49;23.67;;;19.00;;
36315;SDS011;22343;50.820;2.666;2023-04-21T09:53:35;23.77;;;19.30;;
36315;SDS011;22343;50.820;2.666;2023-04-21T09:56:23;23.37;;;19.20;;
36315;SDS011;22343;50.820;2.666;2023-04-21T09:59:09;35.20;;;26.30;;
36315;SDS011;22343;50.820;2.666;2023-04-21T10:02:02;28.60;;;23.07;;
36315;SDS011;22343;50.820;2.666;2023-04-21T10:04:48;23.57;;;19.03;;
36315;SDS011;22343;50.820;2.666;2023-04-21T10:07:32;24.10;;;18.80;;
36315;SDS011;22343;50.820;2.666;2023-04-21T10:10:26;22.27;;;18.07;;
36315;SDS011;22343;50.820;2.666;2023-04-21T10:13:12;20.97;;;17.70;;
36315;SDS011;22343;50.820;2.666;2023-04-21T10:16:08;22.87;;;18.37;;
36315;SDS011;22343;50.820;2.666;2023-04-21T10:18:53;19.97;;;16.77;;
36315;SDS011;22343;50.820;2.666;2023-04-21T10:21:37;18.93;;;15.70;;
36315;SDS011;22343;50.820;2.666;2023-04-21T10:24:22;16.63;;;13.53;;
36315;SDS011;22343;50.820;2.666;2023-04-21T10:27:10;15.07;;;13.17;;
36315;SDS011;22343;50.820;2.666;2023-04-21T10:29:56;17.53;;;13.93;;
36315;SDS011;22343;50.820;2.666;2023-04-21T10:32:41;17.50;;;14.63;;
36315;SDS011;22343;50.820;2.666;2023-04-21T10:35:56;19.53;;;14.10;;
36315;SDS011;22343;50.820;2.666;2023-04-21T10:38:53;16.60;;;13.53;;
36315;SDS011;22343;50.820;2.666;2023-04-21T10:41:38;17.43;;;14.50;;
36315;SDS011;22343;50.820;2.666;2023-04-21T10:44:22;18.27;;;13.83;;
36315;SDS011;22343;50.820;2.666;2023-04-21T10:47:07;17.57;;;14.30;;
36315;SDS011;22343;50.820;2.666;2023-04-21T10:49:52;18.87;;;16.30;;
36315;SDS011;22343;50.820;2.666;2023-04-21T10:52:42;20.57;;;17.53;;
36315;SDS011;22343;50.820;2.666;2023-04-21T10:55:28;21.87;;;17.67;;
36315;SDS011;22343;50.820;2.666;2023-04-21T10:58:14;19.47;;;15.33;;
36315;SDS011;22343;50.820;2.666;2023-04-21T11:00:59;19.00;;;14.47;;
36315;SDS011;22343;50.820;2.666;2023-04-21T11:03:46;15.83;;;13.50;;
36315;SDS011;22343;50.820;2.666;2023-04-21T11:06:30;15.60;;;13.43;;
36315;SDS011;22343;50.820;2.666;2023-04-21T11:09:15;14.57;;;12.40;;
36315;SDS011;22343;50.820;2.666;2023-04-21T11:12:00;12.77;;;11.27;;
36315;SDS011;22343;50.820;2.666;2023-04-21T11:14:46;11.63;;;9.80;;
36315;SDS011;22343;50.820;2.666;2023-04-21T11:17:33;12.50;;;10.70;;
36315;SDS011;22343;50.820;2.666;2023-04-21T11:20:19;13.33;;;11.50;;
36315;SDS011;22343;50.820;2.666;2023-04-21T11:23:04;13.27;;;11.23;;
36315;SDS011;22343;50.820;2.666;2023-04-21T11:25:48;12.13;;;10.43;;
36315;SDS011;22343;50.820;2.666;2023-04-21T11:28:32;12.77;;;11.47;;
36315;SDS011;22343;50.820;2.666;2023-04-21T11:31:17;14.43;;;12.10;;
36315;SDS011;22343;50.820;2.666;2023-04-21T11:34:01;18.10;;;13.03;;
36315;SDS011;22343;50.820;2.666;2023-04-21T11:36:48;15.50;;;12.90;;
36315;SDS011;22343;50.820;2.666;2023-04-21T11:39:32;15.57;;;12.53;;
36315;SDS011;22343;50.820;2.666;2023-04-21T11:42:19;17.63;;;13.30;;
36315;SDS011;22343;50.820;2.666;2023-04-21T11:45:04;19.23;;;13.80;;
36315;SDS011;22343;50.820;2.666;2023-04-21T11:47:49;14.77;;;11.60;;
36315;SDS011;22343;50.820;2.666;2023-04-21T11:50:33;15.67;;;13.03;;
36315;SDS011;22343;50.820;2.666;2023-04-21T11:53:20;17.90;;;14.60;;
36315;SDS011;22343;50.820;2.666;2023-04-21T11:56:04;12.60;;;11.07;;
36315;SDS011;22343;50.820;2.666;2023-04-21T11:58:49;13.37;;;11.47;;
36315;SDS011;22343;50.820;2.666;2023-04-21T12:01:45;13.47;;;10.33;;
36315;SDS011;22343;50.820;2.666;2023-04-21T12:04:30;13.07;;;11.43;;
36315;SDS011;22343;50.820;2.666;2023-04-21T12:07:14;12.03;;;10.73;;
36315;SDS011;22343;50.820;2.666;2023-04-21T12:10:12;15.13;;;13.50;;
36315;SDS011;22343;50.820;2.666;2023-04-21T12:13:00;15.43;;;11.80;;
36315;SDS011;22343;50.820;2.666;2023-04-21T12:15:44;13.23;;;11.43;;
36315;SDS011;22343;50.820;2.666;2023-04-21T12:18:30;15.20;;;12.53;;
36315;SDS011;22343;50.820;2.666;2023-04-21T12:21:15;15.17;;;12.00;;
36315;SDS011;22343;50.820;2.666;2023-04-21T12:23:59;15.17;;;13.10;;
36315;SDS011;22343;50.820;2.666;2023-04-21T12:26:44;15.50;;;12.37;;
36315;SDS011;22343;50.820;2.666;2023-04-21T12:29:28;15.17;;;11.63;;
36315;SDS011;22343;50.820;2.666;2023-04-21T12:32:13;14.33;;;11.90;;
36315;SDS011;22343;50.820;2.666;2023-04-21T12:34:58;14.00;;;11.60;;
36315;SDS011;22343;50.820;2.666;2023-04-21T12:37:43;11.83;;;10.53;;
36315;SDS011;22343;50.820;2.666;2023-04-21T12:40:28;9.93;;;8.90;;
36315;SDS011;22343;50.820;2.666;2023-04-21T12:43:13;10.30;;;9.20;;
36315;SDS011;22343;50.820;2.666;2023-04-21T12:45:58;10.87;;;9.60;;
36315;SDS011;22343;50.820;2.666;2023-04-21T12:48:43;9.97;;;8.73;;
36315;SDS011;22343;50.820;2.666;2023-04-21T12:51:27;10.00;;;8.93;;
36315;SDS011;22343;50.820;2.666;2023-04-21T12:54:11;11.00;;;9.60;;
36315;SDS011;22343;50.820;2.666;2023-04-21T12:56:56;11.37;;;9.60;;
36315;SDS011;22343;50.820;2.666;2023-04-21T12:59:41;11.50;;;10.13;;
36315;SDS011;22343;50.820;2.666;2023-04-21T13:02:25;11.13;;;10.03;;
36315;SDS011;22343;50.820;2.666;2023-04-21T13:05:10;12.23;;;9.47;;
36315;SDS011;22343;50.820;2.666;2023-04-21T13:07:55;10.67;;;9.27;;
36315;SDS011;22343;50.820;2.666;2023-04-21T13:10:40;10.37;;;9.27;;
36315;SDS011;22343;50.820;2.666;2023-04-21T13:13:25;10.33;;;9.03;;
36315;SDS011;22343;50.820;2.666;2023-04-21T13:16:12;11.07;;;9.20;;
36315;SDS011;22343;50.820;2.666;2023-04-21T13:18:56;11.33;;;9.33;;
36315;SDS011;22343;50.820;2.666;2023-04-21T13:21:40;10.03;;;9.03;;
36315;SDS011;22343;50.820;2.666;2023-04-21T13:24:25;11.40;;;10.17;;
36315;SDS011;22343;50.820;2.666;2023-04-21T13:27:09;11.73;;;9.73;;
36315;SDS011;22343;50.820;2.666;2023-04-21T13:29:55;11.37;;;9.67;;
36315;SDS011;22343;50.820;2.666;2023-04-21T13:32:40;9.73;;;8.70;;
36315;SDS011;22343;50.820;2.666;2023-04-21T13:35:25;12.23;;;10.40;;
36315;SDS011;22343;50.820;2.666;2023-04-21T13:38:09;11.60;;;9.60;;
36315;SDS011;22343;50.820;2.666;2023-04-21T13:40:53;13.40;;;11.43;;
36315;SDS011;22343;50.820;2.666;2023-04-21T13:43:38;12.00;;;10.63;;
36315;SDS011;22343;50.820;2.666;2023-04-21T13:46:22;10.97;;;9.43;;
36315;SDS011;22343;50.820;2.666;2023-04-21T13:49:07;11.50;;;10.30;;
36315;SDS011;22343;50.820;2.666;2023-04-21T13:51:51;11.87;;;10.67;;
36315;SDS011;22343;50.820;2.666;2023-04-21T13:54:36;12.67;;;10.47;;
36315;SDS011;22343;50.820;2.666;2023-04-21T13:57:21;10.77;;;9.37;;
36315;SDS011;22343;50.820;2.666;2023-04-21T14:00:05;12.00;;;10.60;;
36315;SDS011;22343;50.820;2.666;2023-04-21T14:02:54;11.33;;;10.23;;
36315;SDS011;22343;50.820;2.666;2023-04-21T14:05:39;13.33;;;11.10;;
36315;SDS011;22343;50.820;2.666;2023-04-21T14:08:24;12.47;;;10.40;;
36315;SDS011;22343;50.820;2.666;2023-04-21T14:11:08;11.80;;;9.97;;
36315;SDS011;22343;50.820;2.666;2023-04-21T14:13:53;10.67;;;9.57;;
36315;SDS011;22343;50.820;2.666;2023-04-21T14:16:37;11.47;;;9.73;;
36315;SDS011;22343;50.820;2.666;2023-04-21T14:19:21;13.77;;;10.17;;
36315;SDS011;22343;50.820;2.666;2023-04-21T14:22:06;11.60;;;10.40;;
36315;SDS011;22343;50.820;2.666;2023-04-21T14:24:50;11.60;;;10.40;;
36315;SDS011;22343;50.820;2.666;2023-04-21T14:27:34;11.27;;;10.07;;
36315;SDS011;22343;50.820;2.666;2023-04-21T14:30:19;11.10;;;9.10;;
36315;SDS011;22343;50.820;2.666;2023-04-21T14:33:04;11.77;;;9.63;;
36315;SDS011;22343;50.820;2.666;2023-04-21T14:35:48;11.10;;;9.90;;
36315;SDS011;22343;50.820;2.666;2023-04-21T14:38:33;12.07;;;10.67;;
36315;SDS011;22343;50.820;2.666;2023-04-21T14:41:18;11.10;;;9.90;;
36315;SDS011;22343;50.820;2.666;2023-04-21T14:44:03;11.73;;;9.73;;
36315;SDS011;22343;50.820;2.666;2023-04-21T14:46:47;10.47;;;9.23;;
36315;SDS011;22343;50.820;2.666;2023-04-21T14:49:31;10.17;;;8.97;;
36315;SDS011;22343;50.820;2.666;2023-04-21T14:52:16;9.87;;;8.77;;
36315;SDS011;22343;50.820;2.666;2023-04-21T14:55:02;10.57;;;8.70;;
36315;SDS011;22343;50.820;2.666;2023-04-21T14:57:47;10.13;;;9.10;;
36315;SDS011;22343;50.820;2.666;2023-04-21T15:00:31;11.57;;;9.47;;
36315;SDS011;22343;50.820;2.666;2023-04-21T15:03:17;10.73;;;9.43;;
36315;SDS011;22343;50.820;2.666;2023-04-21T15:06:02;12.77;;;9.87;;
36315;SDS011;22343;50.820;2.666;2023-04-21T15:08:47;9.97;;;8.30;;
36315;SDS011;22343;50.820;2.666;2023-04-21T15:11:31;11.90;;;8.90;;
36315;SDS011;22343;50.820;2.666;2023-04-21T15:14:16;10.93;;;9.13;;
36315;SDS011;22343;50.820;2.666;2023-04-21T15:17:00;10.87;;;8.60;;
36315;SDS011;22343;50.820;2.666;2023-04-21T15:19:44;10.80;;;8.80;;
36315;SDS011;22343;50.820;2.666;2023-04-21T15:22:29;9.20;;;8.13;;
36315;SDS011;22343;50.820;2.666;2023-04-21T15:25:14;9.03;;;7.67;;
36315;SDS011;22343;50.820;2.666;2023-04-21T15:27:58;9.03;;;8.00;;
36315;SDS011;22343;50.820;2.666;2023-04-21T15:30:43;9.93;;;8.03;;
36315;SDS011;22343;50.820;2.666;2023-04-21T15:33:28;9.90;;;7.80;;
36315;SDS011;22343;50.820;2.666;2023-04-21T15:36:12;8.80;;;7.70;;
36315;SDS011;22343;50.820;2.666;2023-04-21T15:38:56;9.53;;;7.60;;
36315;SDS011;22343;50.820;2.666;2023-04-21T15:41:41;8.93;;;8.03;;
36315;SDS011;22343;50.820;2.666;2023-04-21T15:44:25;9.07;;;8.10;;
36315;SDS011;22343;50.820;2.666;2023-04-21T15:47:10;8.57;;;7.23;;
36315;SDS011;22343;50.820;2.666;2023-04-21T15:49:54;8.83;;;6.87;;
36315;SDS011;22343;50.820;2.666;2023-04-21T15:52:38;8.63;;;7.27;;
36315;SDS011;22343;50.820;2.666;2023-04-21T15:55:26;9.13;;;6.30;;
36315;SDS011;22343;50.820;2.666;2023-04-21T15:58:12;6.37;;;5.63;;
36315;SDS011;22343;50.820;2.666;2023-04-21T16:00:56;5.90;;;5.30;;
36315;SDS011;22343;50.820;2.666;2023-04-21T16:03:40;6.43;;;5.57;;
36315;SDS011;22343;50.820;2.666;2023-04-21T16:06:25;6.57;;;5.53;;
36315;SDS011;22343;50.820;2.666;2023-04-21T16:09:12;6.50;;;5.80;;